EDDK/CGN METAR and TAF weather

Enter ICAO airport designator
Station Type Date Time Source
EDDK METAR 2018/09/21 22:50 UTC NOAA

EDDK 212250Z 24011KT 9999 FEW036 13/05 Q1018 NOSIG


Station Type Date Time Source
EDDK Decoded METAR 2018/09/21 22:50 UTC NOAA

Koeln / Bonn, Germany (EDDK) 50-52N 007-10E 100M
Sep 21, 2018 - 06:50 PM EDT / 2018.09.21 2250 UTC
Wind: from the WSW (240 degrees) at 13 MPH (11 KT):0
Visibility: greater than 7 mile(s):0
Sky conditions: mostly clear
Temperature: 55 F (13 C)
Dew Point: 41 F (5 C)
Relative Humidity: 58%
Pressure (altimeter): 30.06 in. Hg (1018 hPa)
ob: EDDK 212250Z 24011KT 9999 FEW036 13/05 Q1018 NOSIG
cycle: 23

Station Type Date Time Source
EDDK TAF 2018/09/21 18:27 UTC NOAA

TAF EDDK 211700Z 2118/2224 26015G30KT 9999 SCT035
BECMG 2118/2121 24012KT
BECMG 2216/2219 21004KT


Example: see airport list